sensor_id;sensor_type;location;lat;lon;timestamp;pressure;altitude;pressure_sealevel;temperature;humidity
38022;BME280;23832;43.216;27.946;2023-01-25T00:01:03;102451.31;;;7.22;59.17
38022;BME280;23832;43.216;27.946;2023-01-25T00:03:05;102446.06;;;7.22;59.35
38022;BME280;23832;43.216;27.946;2023-01-25T00:05:07;102443.56;;;7.20;59.96
38022;BME280;23832;43.216;27.946;2023-01-25T00:07:09;102450.59;;;7.20;59.76
38022;BME280;23832;43.216;27.946;2023-01-25T00:09:11;102451.50;;;7.19;59.39
38022;BME280;23832;43.216;27.946;2023-01-25T00:11:13;102442.06;;;7.16;60.06
38022;BME280;23832;43.216;27.946;2023-01-25T00:13:16;102448.28;;;7.15;60.10
38022;BME280;23832;43.216;27.946;2023-01-25T00:15:19;102440.63;;;7.12;60.07
38022;BME280;23832;43.216;27.946;2023-01-25T00:17:22;102439.03;;;7.09;60.17
38022;BME280;23832;43.216;27.946;2023-01-25T00:19:24;102437.34;;;7.08;59.69
38022;BME280;23832;43.216;27.946;2023-01-25T00:21:25;102439.13;;;7.08;59.57
38022;BME280;23832;43.216;27.946;2023-01-25T00:23:27;102431.59;;;7.03;59.89
38022;BME280;23832;43.216;27.946;2023-01-25T00:25:29;102425.63;;;7.01;59.79
38022;BME280;23832;43.216;27.946;2023-01-25T00:27:31;102429.28;;;6.99;59.99
38022;BME280;23832;43.216;27.946;2023-01-25T00:29:33;102417.13;;;6.98;59.98
38022;BME280;23832;43.216;27.946;2023-01-25T00:31:44;102425.09;;;6.96;59.88
38022;BME280;23832;43.216;27.946;2023-01-25T00:33:49;102415.69;;;6.94;59.38
38022;BME280;23832;43.216;27.946;2023-01-25T00:35:52;102412.50;;;6.89;59.55
38022;BME280;23832;43.216;27.946;2023-01-25T00:37:56;102415.25;;;6.87;59.26
38022;BME280;23832;43.216;27.946;2023-01-25T00:40:01;102416.31;;;6.85;59.00
38022;BME280;23832;43.216;27.946;2023-01-25T00:42:03;102418.16;;;6.82;59.11
38022;BME280;23832;43.216;27.946;2023-01-25T00:44:05;102409.47;;;6.82;59.43
38022;BME280;23832;43.216;27.946;2023-01-25T00:46:08;102416.50;;;6.81;59.12
38022;BME280;23832;43.216;27.946;2023-01-25T00:48:12;102411.25;;;6.81;59.68
38022;BME280;23832;43.216;27.946;2023-01-25T00:50:14;102418.16;;;6.82;59.68
38022;BME280;23832;43.216;27.946;2023-01-25T00:52:16;102418.16;;;6.82;59.67
38022;BME280;23832;43.216;27.946;2023-01-25T00:54:18;102412.84;;;6.84;59.47
38022;BME280;23832;43.216;27.946;2023-01-25T00:56:20;102410.13;;;6.86;58.68
38022;BME280;23832;43.216;27.946;2023-01-25T00:58:22;102408.34;;;6.86;58.98
38022;BME280;23832;43.216;27.946;2023-01-25T01:00:24;102414.41;;;6.87;58.45
38022;BME280;23832;43.216;27.946;2023-01-25T01:02:26;102412.75;;;6.86;57.89
38022;BME280;23832;43.216;27.946;2023-01-25T01:04:29;102410.22;;;6.84;57.43
38022;BME280;23832;43.216;27.946;2023-01-25T01:06:33;102407.69;;;6.82;57.17
38022;BME280;23832;43.216;27.946;2023-01-25T01:08:37;102406.00;;;6.81;56.89
38022;BME280;23832;43.216;27.946;2023-01-25T01:10:42;102400.47;;;6.86;56.32
38022;BME280;23832;43.216;27.946;2023-01-25T01:12:44;102399.63;;;6.86;56.39
38022;BME280;23832;43.216;27.946;2023-01-25T01:14:46;102394.50;;;6.84;56.06
38022;BME280;23832;43.216;27.946;2023-01-25T01:16:47;102398.66;;;6.74;56.52
38022;BME280;23832;43.216;27.946;2023-01-25T01:18:49;102398.25;;;6.80;56.64
38022;BME280;23832;43.216;27.946;2023-01-25T01:20:53;102393.75;;;6.82;56.30
38022;BME280;23832;43.216;27.946;2023-01-25T01:22:55;102396.34;;;6.82;55.84
38022;BME280;23832;43.216;27.946;2023-01-25T01:24:57;102387.47;;;6.85;56.14
38022;BME280;23832;43.216;27.946;2023-01-25T01:26:58;102395.75;;;6.78;56.32
38022;BME280;23832;43.216;27.946;2023-01-25T01:29:00;102388.00;;;6.77;55.63
38022;BME280;23832;43.216;27.946;2023-01-25T01:31:02;102395.13;;;6.75;55.69
38022;BME280;23832;43.216;27.946;2023-01-25T01:33:06;102386.50;;;6.73;55.66
38022;BME280;23832;43.216;27.946;2023-01-25T01:35:08;102390.06;;;6.72;55.85
38022;BME280;23832;43.216;27.946;2023-01-25T01:37:11;102392.81;;;6.70;55.67
38022;BME280;23832;43.216;27.946;2023-01-25T01:39:13;102396.69;;;6.77;55.00
38022;BME280;23832;43.216;27.946;2023-01-25T01:41:15;102384.00;;;6.71;55.70
38022;BME280;23832;43.216;27.946;2023-01-25T01:43:18;102391.13;;;6.69;55.27
38022;BME280;23832;43.216;27.946;2023-01-25T01:47:41;102383.81;;;6.74;54.95
38022;BME280;23832;43.216;27.946;2023-01-25T01:49:45;102370.78;;;6.73;55.36
38022;BME280;23832;43.216;27.946;2023-01-25T01:51:51;102368.28;;;6.71;54.80
38022;BME280;23832;43.216;27.946;2023-01-25T01:53:57;102374.34;;;6.72;54.69
38022;BME280;23832;43.216;27.946;2023-01-25T01:56:01;102371.63;;;6.73;54.78
38022;BME280;23832;43.216;27.946;2023-01-25T01:58:05;102372.56;;;6.72;54.74
38022;BME280;23832;43.216;27.946;2023-01-25T02:00:09;102365.53;;;6.73;54.88
38022;BME280;23832;43.216;27.946;2023-01-25T02:02:12;102369.75;;;6.75;54.32
38022;BME280;23832;43.216;27.946;2023-01-25T02:04:16;102366.38;;;6.73;54.50
38022;BME280;23832;43.216;27.946;2023-01-25T02:06:24;102370.59;;;6.76;54.98
38022;BME280;23832;43.216;27.946;2023-01-25T02:08:29;102361.97;;;6.74;54.38
38022;BME280;23832;43.216;27.946;2023-01-25T02:10:34;102362.06;;;6.72;54.40
38022;BME280;23832;43.216;27.946;2023-01-25T02:12:37;102363.03;;;6.71;54.92
38022;BME280;23832;43.216;27.946;2023-01-25T02:14:39;102362.19;;;6.71;54.33
38022;BME280;23832;43.216;27.946;2023-01-25T02:16:45;102355.28;;;6.70;54.56
38022;BME280;23832;43.216;27.946;2023-01-25T02:18:47;102363.25;;;6.68;54.62
38022;BME280;23832;43.216;27.946;2023-01-25T02:20:49;102361.88;;;6.63;54.45
38022;BME280;23832;43.216;27.946;2023-01-25T02:22:53;102360.53;;;6.57;54.69
38022;BME280;23832;43.216;27.946;2023-01-25T02:25:01;102360.59;;;6.55;54.95
38022;BME280;23832;43.216;27.946;2023-01-25T02:27:06;102347.63;;;6.54;54.94
38022;BME280;23832;43.216;27.946;2023-01-25T02:29:08;102345.84;;;6.54;55.12
38022;BME280;23832;43.216;27.946;2023-01-25T02:31:11;102345.94;;;6.53;55.26
38022;BME280;23832;43.216;27.946;2023-01-25T02:33:12;102339.03;;;6.52;55.63
38022;BME280;23832;43.216;27.946;2023-01-25T02:35:17;102342.59;;;6.51;55.54
38022;BME280;23832;43.216;27.946;2023-01-25T02:37:19;102337.34;;;6.51;55.26
38022;BME280;23832;43.216;27.946;2023-01-25T02:39:21;102339.03;;;6.52;55.38
38022;BME280;23832;43.216;27.946;2023-01-25T02:41:29;102340.19;;;6.48;55.54
38022;BME280;23832;43.216;27.946;2023-01-25T02:43:31;102336.63;;;6.49;55.62
38022;BME280;23832;43.216;27.946;2023-01-25T02:45:33;102338.50;;;6.47;55.56
38022;BME280;23832;43.216;27.946;2023-01-25T02:47:35;102341.22;;;6.45;55.42
38022;BME280;23832;43.216;27.946;2023-01-25T02:49:37;102343.84;;;6.45;55.62
38022;BME280;23832;43.216;27.946;2023-01-25T02:51:40;102344.91;;;6.43;55.97
38022;BME280;23832;43.216;27.946;2023-01-25T02:53:42;102346.56;;;6.44;55.74
38022;BME280;23832;43.216;27.946;2023-01-25T02:55:43;102342.16;;;6.44;55.80
38022;BME280;23832;43.216;27.946;2023-01-25T02:57:47;102348.34;;;6.43;56.50
38022;BME280;23832;43.216;27.946;2023-01-25T02:59:49;102351.81;;;6.44;56.26
38022;BME280;23832;43.216;27.946;2023-01-25T03:01:50;102343.22;;;6.42;55.99
38022;BME280;23832;43.216;27.946;2023-01-25T03:03:52;102350.25;;;6.41;56.28
38022;BME280;23832;43.216;27.946;2023-01-25T03:05:54;102345.84;;;6.42;55.97
38022;BME280;23832;43.216;27.946;2023-01-25T03:07:55;102345.00;;;6.41;56.19
38022;BME280;23832;43.216;27.946;2023-01-25T03:09:57;102343.44;;;6.39;56.21
38022;BME280;23832;43.216;27.946;2023-01-25T03:11:59;102346.25;;;6.36;56.60
38022;BME280;23832;43.216;27.946;2023-01-25T03:14:02;102341.97;;;6.35;56.22
38022;BME280;23832;43.216;27.946;2023-01-25T03:16:05;102341.97;;;6.35;56.61
38022;BME280;23832;43.216;27.946;2023-01-25T03:18:07;102342.78;;;6.35;56.57
38022;BME280;23832;43.216;27.946;2023-01-25T03:20:10;102348.13;;;6.34;56.54
38022;BME280;23832;43.216;27.946;2023-01-25T03:22:12;102341.22;;;6.33;56.97
38022;BME280;23832;43.216;27.946;2023-01-25T03:24:13;102344.78;;;6.32;57.04
38022;BME280;23832;43.216;27.946;2023-01-25T03:26:16;102344.78;;;6.32;56.58
38022;BME280;23832;43.216;27.946;2023-01-25T03:28:18;102351.91;;;6.30;57.17
38022;BME280;23832;43.216;27.946;2023-01-25T03:30:21;102352.84;;;6.29;56.76
38022;BME280;23832;43.216;27.946;2023-01-25T03:32:23;102346.69;;;6.30;56.92
38022;BME280;23832;43.216;27.946;2023-01-25T03:34:25;102345.75;;;6.31;56.97
38022;BME280;23832;43.216;27.946;2023-01-25T03:36:26;102338.59;;;6.33;56.83
38022;BME280;23832;43.216;27.946;2023-01-25T03:38:29;102348.34;;;6.31;56.99
38022;BME280;23832;43.216;27.946;2023-01-25T03:40:30;102344.13;;;6.28;56.89
38022;BME280;23832;43.216;27.946;2023-01-25T03:42:32;102344.34;;;6.25;57.39
38022;BME280;23832;43.216;27.946;2023-01-25T03:44:34;102338.28;;;6.24;57.49
38022;BME280;23832;43.216;27.946;2023-01-25T03:46:37;102337.44;;;6.24;57.85
38022;BME280;23832;43.216;27.946;2023-01-25T03:48:39;102334.94;;;6.22;57.87
38022;BME280;23832;43.216;27.946;2023-01-25T03:50:41;102332.44;;;6.21;57.38
38022;BME280;23832;43.216;27.946;2023-01-25T03:52:46;102327.06;;;6.22;57.57
38022;BME280;23832;43.216;27.946;2023-01-25T03:55:19;102323.72;;;6.20;58.04
38022;BME280;23832;43.216;27.946;2023-01-25T03:57:20;102329.88;;;6.19;58.38
38022;BME280;23832;43.216;27.946;2023-01-25T03:59:22;102322.97;;;6.18;57.90
38022;BME280;23832;43.216;27.946;2023-01-25T04:01:24;102321.28;;;6.17;58.11
38022;BME280;23832;43.216;27.946;2023-01-25T04:03:27;102323.81;;;6.19;58.84
38022;BME280;23832;43.216;27.946;2023-01-25T04:05:29;102322.97;;;6.18;58.55
38022;BME280;23832;43.216;27.946;2023-01-25T04:07:31;102324.88;;;6.16;58.64
38022;BME280;23832;43.216;27.946;2023-01-25T04:09:35;102333.66;;;6.15;58.33
38022;BME280;23832;43.216;27.946;2023-01-25T04:11:38;102331.03;;;6.15;58.83
38022;BME280;23832;43.216;27.946;2023-01-25T04:13:39;102329.25;;;6.16;58.88
38022;BME280;23832;43.216;27.946;2023-01-25T04:15:41;102326.53;;;6.17;59.48
38022;BME280;23832;43.216;27.946;2023-01-25T04:17:43;102327.25;;;6.19;59.69
38022;BME280;23832;43.216;27.946;2023-01-25T04:19:46;102333.25;;;6.21;60.12
38022;BME280;23832;43.216;27.946;2023-01-25T04:21:48;102332.94;;;6.26;61.20
38022;BME280;23832;43.216;27.946;2023-01-25T04:23:49;102338.59;;;6.33;61.69
38022;BME280;23832;43.216;27.946;2023-01-25T04:25:51;102335.78;;;6.36;62.35
38022;BME280;23832;43.216;27.946;2023-01-25T04:27:53;102337.56;;;6.35;62.49
38022;BME280;23832;43.216;27.946;2023-01-25T04:29:55;102332.63;;;6.31;62.38
38022;BME280;23832;43.216;27.946;2023-01-25T04:31:57;102332.75;;;6.29;62.69
38022;BME280;23832;43.216;27.946;2023-01-25T04:34:00;102337.03;;;6.30;63.66
38022;BME280;23832;43.216;27.946;2023-01-25T04:36:05;102331.81;;;6.30;64.32
38022;BME280;23832;43.216;27.946;2023-01-25T04:38:08;102328.25;;;6.31;64.33
38022;BME280;23832;43.216;27.946;2023-01-25T04:40:10;102339.56;;;6.32;64.27
38022;BME280;23832;43.216;27.946;2023-01-25T04:42:11;102339.56;;;6.32;64.31
38022;BME280;23832;43.216;27.946;2023-01-25T04:44:13;102328.34;;;6.30;63.96
38022;BME280;23832;43.216;27.946;2023-01-25T04:46:15;102330.13;;;6.29;64.07
38022;BME280;23832;43.216;27.946;2023-01-25T04:48:17;102317.22;;;6.26;64.09
38022;BME280;23832;43.216;27.946;2023-01-25T04:50:19;102321.50;;;6.27;64.78
38022;BME280;23832;43.216;27.946;2023-01-25T04:52:22;102332.00;;;6.27;65.11
38022;BME280;23832;43.216;27.946;2023-01-25T04:54:24;102328.53;;;6.26;65.00
38022;BME280;23832;43.216;27.946;2023-01-25T04:56:25;102324.97;;;6.28;65.91
38022;BME280;23832;43.216;27.946;2023-01-25T04:58:27;102321.41;;;6.29;65.49
38022;BME280;23832;43.216;27.946;2023-01-25T05:00:29;102327.41;;;6.31;65.54
38022;BME280;23832;43.216;27.946;2023-01-25T05:02:31;102321.22;;;6.32;65.66
38022;BME280;23832;43.216;27.946;2023-01-25T05:04:33;102324.78;;;6.31;65.67
38022;BME280;23832;43.216;27.946;2023-01-25T05:06:35;102332.63;;;6.31;66.10
38022;BME280;23832;43.216;27.946;2023-01-25T05:08:38;102328.25;;;6.31;65.68
38022;BME280;23832;43.216;27.946;2023-01-25T05:10:40;102332.53;;;6.32;65.83
38022;BME280;23832;43.216;27.946;2023-01-25T05:12:42;102329.06;;;6.32;65.82
38022;BME280;23832;43.216;27.946;2023-01-25T05:14:44;102324.66;;;6.32;66.37
38022;BME280;23832;43.216;27.946;2023-01-25T05:16:46;102329.06;;;6.32;66.73
38022;BME280;23832;43.216;27.946;2023-01-25T05:18:48;102323.00;;;6.31;66.73
38022;BME280;23832;43.216;27.946;2023-01-25T05:20:52;102320.38;;;6.31;66.88
38022;BME280;23832;43.216;27.946;2023-01-25T05:22:54;102323.84;;;6.32;66.53
38022;BME280;23832;43.216;27.946;2023-01-25T05:25:06;102311.69;;;6.31;66.80
38022;BME280;23832;43.216;27.946;2023-01-25T05:27:28;102317.88;;;6.30;66.80
38022;BME280;23832;43.216;27.946;2023-01-25T05:29:28;102309.19;;;6.29;67.52
38022;BME280;23832;43.216;27.946;2023-01-25T05:31:31;102320.50;;;6.30;67.77
38022;BME280;23832;43.216;27.946;2023-01-25T05:33:32;102318.59;;;6.32;67.70
38022;BME280;23832;43.216;27.946;2023-01-25T05:35:34;102313.34;;;6.32;68.36
38022;BME280;23832;43.216;27.946;2023-01-25T05:37:36;102314.19;;;6.32;67.76
38022;BME280;23832;43.216;27.946;2023-01-25T05:39:38;102312.41;;;6.33;68.24
38022;BME280;23832;43.216;27.946;2023-01-25T05:41:42;102315.03;;;6.33;68.76
38022;BME280;23832;43.216;27.946;2023-01-25T05:43:46;102308.97;;;6.32;68.78
38022;BME280;23832;43.216;27.946;2023-01-25T05:45:50;102310.75;;;6.32;68.71
38022;BME280;23832;43.216;27.946;2023-01-25T05:47:53;102308.97;;;6.32;69.24
38022;BME280;23832;43.216;27.946;2023-01-25T05:49:55;102313.13;;;6.35;69.26
38022;BME280;23832;43.216;27.946;2023-01-25T05:51:57;102314.81;;;6.36;69.34
38022;BME280;23832;43.216;27.946;2023-01-25T05:53:59;102311.25;;;6.37;69.48
38022;BME280;23832;43.216;27.946;2023-01-25T05:56:03;102310.41;;;6.36;69.75
38022;BME280;23832;43.216;27.946;2023-01-25T05:58:07;102294.59;;;6.38;69.60
38022;BME280;23832;43.216;27.946;2023-01-25T06:00:09;102309.38;;;6.39;69.74
38022;BME280;23832;43.216;27.946;2023-01-25T06:02:11;102309.38;;;6.39;70.50
38022;BME280;23832;43.216;27.946;2023-01-25T06:04:17;102314.50;;;6.40;70.32
38022;BME280;23832;43.216;27.946;2023-01-25T06:06:19;102309.16;;;6.42;70.60
38022;BME280;23832;43.216;27.946;2023-01-25T06:08:21;102302.13;;;6.42;70.37
38022;BME280;23832;43.216;27.946;2023-01-25T06:10:23;102300.34;;;6.43;70.79
38022;BME280;23832;43.216;27.946;2023-01-25T06:12:25;102294.16;;;6.44;71.07
38022;BME280;23832;43.216;27.946;2023-01-25T06:14:29;102295.84;;;6.45;70.98
38022;BME280;23832;43.216;27.946;2023-01-25T06:16:30;102300.13;;;6.46;71.39
38022;BME280;23832;43.216;27.946;2023-01-25T06:18:32;102301.91;;;6.45;71.78
38022;BME280;23832;43.216;27.946;2023-01-25T06:20:37;102309.66;;;6.47;72.13
38022;BME280;23832;43.216;27.946;2023-01-25T06:22:38;102299.19;;;6.47;72.37
38022;BME280;23832;43.216;27.946;2023-01-25T06:24:40;102299.19;;;6.47;72.23
38022;BME280;23832;43.216;27.946;2023-01-25T06:26:42;102298.28;;;6.48;72.54
38022;BME280;23832;43.216;27.946;2023-01-25T06:28:43;102293.88;;;6.48;72.85
38022;BME280;23832;43.216;27.946;2023-01-25T06:30:49;102286.72;;;6.50;72.82
38022;BME280;23832;43.216;27.946;2023-01-25T06:32:51;102278.75;;;6.52;73.31
38022;BME280;23832;43.216;27.946;2023-01-25T06:34:53;102289.97;;;6.54;73.65
38022;BME280;23832;43.216;27.946;2023-01-25T06:36:55;102280.25;;;6.56;73.75
38022;BME280;23832;43.216;27.946;2023-01-25T06:38:57;102273.09;;;6.58;74.28
38022;BME280;23832;43.216;27.946;2023-01-25T06:40:59;102277.28;;;6.61;74.57
38022;BME280;23832;43.216;27.946;2023-01-25T06:43:04;102282.53;;;6.61;74.16
38022;BME280;23832;43.216;27.946;2023-01-25T06:45:07;102274.56;;;6.62;74.88
38022;BME280;23832;43.216;27.946;2023-01-25T06:47:10;102270.88;;;6.65;74.51
38022;BME280;23832;43.216;27.946;2023-01-25T06:49:14;102280.44;;;6.66;74.60
38022;BME280;23832;43.216;27.946;2023-01-25T06:51:16;102281.16;;;6.68;74.94
38022;BME280;23832;43.216;27.946;2023-01-25T06:53:18;102271.41;;;6.70;75.88
38022;BME280;23832;43.216;27.946;2023-01-25T06:55:20;102259.84;;;6.72;76.40
38022;BME280;23832;43.216;27.946;2023-01-25T06:57:22;102253.66;;;6.73;76.14
38022;BME280;23832;43.216;27.946;2023-01-25T06:59:24;102261.31;;;6.76;76.96
38022;BME280;23832;43.216;27.946;2023-01-25T07:01:26;102260.16;;;6.80;77.32
38022;BME280;23832;43.216;27.946;2023-01-25T07:03:31;102248.72;;;6.81;77.02
38022;BME280;23832;43.216;27.946;2023-01-25T07:05:33;102259.97;;;6.83;77.91
38022;BME280;23832;43.216;27.946;2023-01-25T07:07:35;102269.25;;;6.88;77.73
38022;BME280;23832;43.216;27.946;2023-01-25T07:09:37;102249.97;;;6.89;78.14
38022;BME280;23832;43.216;27.946;2023-01-25T07:11:38;102247.22;;;6.90;78.12
38022;BME280;23832;43.216;27.946;2023-01-25T07:13:41;102265.47;;;6.92;78.48
38022;BME280;23832;43.216;27.946;2023-01-25T07:15:44;102254.91;;;6.93;78.47
38022;BME280;23832;43.216;27.946;2023-01-25T07:17:52;102261.69;;;6.96;78.90
38022;BME280;23832;43.216;27.946;2023-01-25T07:19:55;102258.13;;;6.97;78.84
38022;BME280;23832;43.216;27.946;2023-01-25T07:21:57;102259.56;;;7.01;78.40
38022;BME280;23832;43.216;27.946;2023-01-25T07:23:59;102250.78;;;7.02;78.85
38022;BME280;23832;43.216;27.946;2023-01-25T07:26:04;102255.78;;;7.05;78.60
38022;BME280;23832;43.216;27.946;2023-01-25T07:28:06;102258.28;;;7.06;78.97
38022;BME280;23832;43.216;27.946;2023-01-25T07:30:08;102257.22;;;7.09;78.63
38022;BME280;23832;43.216;27.946;2023-01-25T07:32:11;102259.78;;;7.10;78.75
38022;BME280;23832;43.216;27.946;2023-01-25T07:34:14;102262.28;;;7.12;79.33
38022;BME280;23832;43.216;27.946;2023-01-25T07:36:17;102255.13;;;7.14;79.12
38022;BME280;23832;43.216;27.946;2023-01-25T07:38:19;102259.31;;;7.17;79.12
38022;BME280;23832;43.216;27.946;2023-01-25T07:40:21;102266.22;;;7.18;79.76
38022;BME280;23832;43.216;27.946;2023-01-25T07:42:24;102262.66;;;7.19;79.62
38022;BME280;23832;43.216;27.946;2023-01-25T07:44:26;102272.22;;;7.20;79.42
38022;BME280;23832;43.216;27.946;2023-01-25T07:46:28;102273.88;;;7.21;79.07
38022;BME280;23832;43.216;27.946;2023-01-25T07:48:30;102269.34;;;7.23;79.50
38022;BME280;23832;43.216;27.946;2023-01-25T07:50:32;102276.28;;;7.24;79.01
38022;BME280;23832;43.216;27.946;2023-01-25T07:52:35;102268.28;;;7.25;79.57
38022;BME280;23832;43.216;27.946;2023-01-25T07:54:37;102274.19;;;7.29;79.49
38022;BME280;23832;43.216;27.946;2023-01-25T07:56:40;102274.78;;;7.32;79.22
38022;BME280;23832;43.216;27.946;2023-01-25T07:58:42;102270.13;;;7.36;79.98
38022;BME280;23832;43.216;27.946;2023-01-25T08:00:44;102274.09;;;7.42;79.47
38022;BME280;23832;43.216;27.946;2023-01-25T08:02:48;102286.03;;;7.46;78.97
38022;BME280;23832;43.216;27.946;2023-01-25T08:04:50;102281.41;;;7.49;78.31
38022;BME280;23832;43.216;27.946;2023-01-25T08:06:53;102280.34;;;7.52;78.09
38022;BME280;23832;43.216;27.946;2023-01-25T08:08:56;102279.28;;;7.54;78.29
38022;BME280;23832;43.216;27.946;2023-01-25T08:10:59;102280.75;;;7.58;78.29
38022;BME280;23832;43.216;27.946;2023-01-25T08:13:01;102291.84;;;7.62;78.23
38022;BME280;23832;43.216;27.946;2023-01-25T08:15:03;102282.19;;;7.62;77.59
38022;BME280;23832;43.216;27.946;2023-01-25T08:17:05;102291.63;;;7.65;78.50
38022;BME280;23832;43.216;27.946;2023-01-25T08:19:08;102300.72;;;7.72;79.52
38022;BME280;23832;43.216;27.946;2023-01-25T08:21:10;102290.72;;;7.77;82.86
38022;BME280;23832;43.216;27.946;2023-01-25T08:23:12;102295.50;;;7.83;84.47
38022;BME280;23832;43.216;27.946;2023-01-25T08:25:15;102306.63;;;7.87;84.62
38022;BME280;23832;43.216;27.946;2023-01-25T08:27:19;102303.88;;;7.88;83.10
38022;BME280;23832;43.216;27.946;2023-01-25T08:29:21;102314.25;;;7.90;81.65
38022;BME280;23832;43.216;27.946;2023-01-25T08:31:23;102304.81;;;7.87;81.28
38022;BME280;23832;43.216;27.946;2023-01-25T08:33:26;102307.44;;;7.87;80.74
38022;BME280;23832;43.216;27.946;2023-01-25T08:35:28;102316.53;;;7.83;78.98
38022;BME280;23832;43.216;27.946;2023-01-25T08:37:30;102322.81;;;7.81;78.25
38022;BME280;23832;43.216;27.946;2023-01-25T08:39:31;102322.22;;;7.77;78.41
38022;BME280;23832;43.216;27.946;2023-01-25T08:41:35;102317.22;;;7.74;78.02
38022;BME280;23832;43.216;27.946;2023-01-25T08:43:37;102317.22;;;7.74;77.82
38022;BME280;23832;43.216;27.946;2023-01-25T08:45:39;102315.63;;;7.72;78.02
38022;BME280;23832;43.216;27.946;2023-01-25T08:47:41;102312.16;;;7.71;77.48
38022;BME280;23832;43.216;27.946;2023-01-25T08:49:43;102301.66;;;7.71;77.22
38022;BME280;23832;43.216;27.946;2023-01-25T08:51:45;102303.31;;;7.72;77.38
38022;BME280;23832;43.216;27.946;2023-01-25T08:53:47;102304.16;;;7.73;78.03
38022;BME280;23832;43.216;27.946;2023-01-25T08:55:51;102294.41;;;7.75;78.21
38022;BME280;23832;43.216;27.946;2023-01-25T08:57:54;102287.13;;;7.78;78.21
38022;BME280;23832;43.216;27.946;2023-01-25T08:59:56;102279.88;;;7.82;78.25
38022;BME280;23832;43.216;27.946;2023-01-25T09:01:58;102281.19;;;7.87;78.98
38022;BME280;23832;43.216;27.946;2023-01-25T09:04:00;102274.41;;;7.96;80.61
38022;BME280;23832;43.216;27.946;2023-01-25T09:06:01;102274.78;;;8.03;81.05
38022;BME280;23832;43.216;27.946;2023-01-25T09:08:04;102268.13;;;8.10;81.88
38022;BME280;23832;43.216;27.946;2023-01-25T09:10:07;102267.75;;;8.14;81.24
38022;BME280;23832;43.216;27.946;2023-01-25T09:12:09;102271.00;;;8.18;80.41
38022;BME280;23832;43.216;27.946;2023-01-25T09:14:12;102270.88;;;8.19;79.48
38022;BME280;23832;43.216;27.946;2023-01-25T09:16:14;102268.13;;;8.21;78.81
38022;BME280;23832;43.216;27.946;2023-01-25T09:18:16;102266.34;;;8.21;77.98
38022;BME280;23832;43.216;27.946;2023-01-25T09:20:18;102261.91;;;8.22;77.74
38022;BME280;23832;43.216;27.946;2023-01-25T09:22:20;102268.84;;;8.23;77.04
38022;BME280;23832;43.216;27.946;2023-01-25T09:24:22;102269.69;;;8.23;76.42
38022;BME280;23832;43.216;27.946;2023-01-25T09:26:24;102260.25;;;8.21;75.77
38022;BME280;23832;43.216;27.946;2023-01-25T09:28:27;102271.72;;;8.20;75.37
38022;BME280;23832;43.216;27.946;2023-01-25T09:30:31;102269.09;;;8.20;75.51
38022;BME280;23832;43.216;27.946;2023-01-25T09:32:33;102272.44;;;8.22;75.77
38022;BME280;23832;43.216;27.946;2023-01-25T09:34:35;102263.59;;;8.23;75.86
38022;BME280;23832;43.216;27.946;2023-01-25T09:36:36;102261.81;;;8.23;75.91
38022;BME280;23832;43.216;27.946;2023-01-25T09:38:38;102252.84;;;8.26;75.78
38022;BME280;23832;43.216;27.946;2023-01-25T09:40:40;102244.75;;;8.29;76.00
38022;BME280;23832;43.216;27.946;2023-01-25T09:42:55;102242.00;;;8.31;75.23
38022;BME280;23832;43.216;27.946;2023-01-25T09:45:04;102248.78;;;8.33;75.21
38022;BME280;23832;43.216;27.946;2023-01-25T09:47:12;102250.97;;;8.39;74.70
38022;BME280;23832;43.216;27.946;2023-01-25T09:49:20;102236.03;;;8.40;74.39
38022;BME280;23832;43.216;27.946;2023-01-25T09:51:29;102226.13;;;8.43;74.66
38022;BME280;23832;43.216;27.946;2023-01-25T09:53:34;102225.91;;;8.46;74.45
38022;BME280;23832;43.216;27.946;2023-01-25T09:55:39;102218.47;;;8.51;75.13
38022;BME280;23832;43.216;27.946;2023-01-25T09:57:42;102229.34;;;8.58;75.09
38022;BME280;23832;43.216;27.946;2023-01-25T09:59:45;102220.25;;;8.62;74.47
38022;BME280;23832;43.216;27.946;2023-01-25T10:01:50;102214.63;;;8.67;74.00
38022;BME280;23832;43.216;27.946;2023-01-25T10:03:56;102221.31;;;8.71;73.96
38022;BME280;23832;43.216;27.946;2023-01-25T10:06:01;102215.56;;;8.77;73.60
38022;BME280;23832;43.216;27.946;2023-01-25T10:08:05;102210.78;;;8.82;73.49
38022;BME280;23832;43.216;27.946;2023-01-25T10:10:10;102206.81;;;8.88;73.88
38022;BME280;23832;43.216;27.946;2023-01-25T10:12:17;102205.50;;;8.93;73.38
38022;BME280;23832;43.216;27.946;2023-01-25T10:14:20;102206.91;;;8.97;72.69
38022;BME280;23832;43.216;27.946;2023-01-25T10:16:23;102209.06;;;9.03;72.89
38022;BME280;23832;43.216;27.946;2023-01-25T10:18:27;102216.59;;;9.08;72.29
38022;BME280;23832;43.216;27.946;2023-01-25T10:20:34;102223.00;;;9.15;72.06
38022;BME280;23832;43.216;27.946;2023-01-25T10:22:41;102212.94;;;9.20;71.59
38022;BME280;23832;43.216;27.946;2023-01-25T10:27:07;102215.66;;;9.30;70.78
38022;BME280;23832;43.216;27.946;2023-01-25T10:29:16;102199.88;;;9.30;69.33
38022;BME280;23832;43.216;27.946;2023-01-25T10:31:21;102200.69;;;9.30;68.45
38022;BME280;23832;43.216;27.946;2023-01-25T10:33:27;102200.84;;;9.29;68.63
38022;BME280;23832;43.216;27.946;2023-01-25T10:35:30;102199.03;;;9.29;68.70
38022;BME280;23832;43.216;27.946;2023-01-25T10:37:36;102192.09;;;9.28;68.10
38022;BME280;23832;43.216;27.946;2023-01-25T10:39:40;102185.88;;;9.29;68.02
38022;BME280;23832;43.216;27.946;2023-01-25T10:41:44;102192.94;;;9.29;67.84
38022;BME280;23832;43.216;27.946;2023-01-25T10:43:47;102183.25;;;9.29;67.60
38022;BME280;23832;43.216;27.946;2023-01-25T10:46:14;102187.69;;;9.29;67.13
38022;BME280;23832;43.216;27.946;2023-01-25T10:48:18;102180.03;;;9.26;67.12